createdAt,value
2023-02-06T00:01:30.117Z,102061.13
2023-02-06T00:05:31.918Z,102063.20
2023-02-06T00:09:42.504Z,102062.95
2023-02-06T00:14:19.304Z,102066.48
2023-02-06T00:17:53.523Z,102065.77
2023-02-06T00:21:57.544Z,102057.90
2023-02-06T00:25:48.760Z,102067.11
2023-02-06T00:29:51.491Z,102058.02
2023-02-06T00:34:19.617Z,102060.48
2023-02-06T00:38:19.779Z,102049.04
2023-02-06T00:42:14.565Z,102050.27
2023-02-06T00:45:48.086Z,102046.79
2023-02-06T00:49:18.667Z,102047.33
2023-02-06T00:52:59.331Z,102040.02
2023-02-06T00:56:44.556Z,102043.23
2023-02-06T01:01:10.911Z,102045.01
2023-02-06T01:05:08.023Z,102042.27
2023-02-06T01:09:05.721Z,102038.92
2023-02-06T01:13:20.151Z,102047.93
2023-02-06T01:24:33.681Z,102055.98
2023-02-06T01:26:25.479Z,102034.18
2023-02-06T01:30:50.382Z,102036.30
2023-02-06T01:34:25.303Z,102040.48
2023-02-06T01:38:29.481Z,102029.20
2023-02-06T01:42:14.269Z,102027.15
2023-02-06T01:46:20.290Z,102024.45
2023-02-06T01:50:30.280Z,102013.18
2023-02-06T01:54:25.219Z,102019.61
2023-02-06T01:57:50.125Z,102028.76
2023-02-06T02:01:42.699Z,102027.47
2023-02-06T02:05:40.449Z,102026.84
2023-02-06T02:09:36.086Z,102031.30
2023-02-06T02:13:27.285Z,102023.31
2023-02-06T02:17:13.833Z,102012.30
2023-02-06T02:21:14.863Z,102007.86
2023-02-06T02:25:21.752Z,101996.13
2023-02-06T02:29:35.135Z,101990.29
2023-02-06T02:33:30.095Z,101990.30
2023-02-06T02:37:36.940Z,101983.63
2023-02-06T02:41:43.455Z,101979.47
2023-02-06T02:45:37.527Z,101974.34
2023-02-06T02:49:42.625Z,101963.02
2023-02-06T02:53:45.350Z,101959.70
2023-02-06T02:57:24.596Z,101961.87
2023-02-06T03:01:10.340Z,101961.45
2023-02-06T03:05:23.364Z,101959.23
2023-02-06T03:09:29.143Z,101950.92
2023-02-06T03:13:23.014Z,101955.44
2023-02-06T03:17:14.137Z,101943.46
2023-02-06T03:21:07.860Z,101929.69
2023-02-06T03:24:55.108Z,101935.98
2023-02-06T03:28:41.702Z,101932.79
2023-02-06T03:32:08.211Z,101933.09
2023-02-06T03:36:18.279Z,101928.89
2023-02-06T03:40:02.282Z,101913.01
2023-02-06T03:44:06.197Z,101908.81
2023-02-06T03:48:03.345Z,101918.63
2023-02-06T03:51:59.133Z,101932.45
2023-02-06T03:55:51.604Z,101924.35
2023-02-06T04:00:04.923Z,101917.29
2023-02-06T04:05:55.576Z,101922.58
2023-02-06T04:09:04.395Z,101920.23
2023-02-06T04:12:50.843Z,101917.83
2023-02-06T04:16:55.831Z,101919.88
2023-02-06T04:20:47.700Z,101921.38
2023-02-06T04:24:41.740Z,101918.44
2023-02-06T04:29:11.072Z,101925.72
2023-02-06T04:33:16.482Z,101933.20
2023-02-06T04:37:03.085Z,101937.29
2023-02-06T04:41:01.768Z,101948.06
2023-02-06T04:45:05.734Z,101940.42
2023-02-06T04:48:58.465Z,101923.03
2023-02-06T04:53:02.498Z,101911.34
2023-02-06T04:57:22.802Z,101916.16
2023-02-06T05:01:24.870Z,101919.83
2023-02-06T05:05:18.840Z,101917.88
2023-02-06T05:09:21.605Z,101909.47
2023-02-06T05:12:58.060Z,101897.21
2023-02-06T05:17:00.899Z,101879.62
2023-02-06T05:21:03.637Z,101878.82
2023-02-06T05:24:57.272Z,101882.08
2023-02-06T05:29:01.232Z,101879.41
2023-02-06T05:32:46.666Z,101875.66
2023-02-06T05:36:50.744Z,101880.06
2023-02-06T05:40:54.612Z,101895.17
2023-02-06T05:44:38.330Z,101900.84
2023-02-06T05:48:37.410Z,101914.16
2023-02-06T05:52:41.480Z,101920.95
2023-02-06T05:56:36.930Z,101933.16
2023-02-06T06:00:31.511Z,101927.77
2023-02-06T06:04:15.087Z,101932.08
2023-02-06T06:08:19.051Z,101933.13
2023-02-06T06:12:23.114Z,101932.83
2023-02-06T06:16:10.294Z,101926.01
2023-02-06T06:20:06.896Z,101930.11
2023-02-06T06:23:42.351Z,101936.02
2023-02-06T06:27:46.437Z,101939.82
2023-02-06T06:31:32.830Z,101943.67
2023-02-06T06:35:25.459Z,101940.31
2023-02-06T06:39:19.153Z,101940.16
2023-02-06T06:43:23.574Z,101934.26
2023-02-06T06:47:27.522Z,101924.88
2023-02-06T06:51:06.385Z,101927.31
2023-02-06T06:54:53.108Z,101924.70
2023-02-06T06:58:57.064Z,101922.99
2023-02-06T07:02:50.641Z,101920.42
2023-02-06T07:07:10.546Z,101916.95
2023-02-06T07:11:04.525Z,101921.40
2023-02-06T07:15:08.122Z,101926.43
2023-02-06T07:19:11.713Z,101925.25
2023-02-06T07:23:16.033Z,101931.95
2023-02-06T07:27:18.574Z,101935.44
2023-02-06T07:31:47.221Z,101945.48
2023-02-06T07:35:40.583Z,101949.05
2023-02-06T07:39:30.683Z,101939.02
2023-02-06T07:43:22.487Z,101949.65
2023-02-06T07:47:15.994Z,101961.38
2023-02-06T07:51:21.654Z,101963.47
2023-02-06T07:55:05.266Z,101965.89
2023-02-06T07:59:16.935Z,101966.95
2023-02-06T08:03:20.547Z,101965.23
2023-02-06T08:07:32.448Z,101966.31
2023-02-06T08:11:36.096Z,101971.98
2023-02-06T08:15:46.024Z,101972.88
2023-02-06T08:19:39.502Z,101976.11
2023-02-06T08:23:48.243Z,101979.66
2023-02-06T08:27:52.089Z,101985.61
2023-02-06T08:31:58.192Z,101991.23
2023-02-06T08:35:54.846Z,101990.84
2023-02-06T08:39:58.558Z,101978.25
2023-02-06T08:44:02.204Z,101966.60
2023-02-06T08:47:55.637Z,101964.01
2023-02-06T08:51:59.760Z,101971.80
2023-02-06T08:55:43.943Z,101968.42
2023-02-06T09:04:30.591Z,101957.72
2023-02-06T09:08:13.218Z,101970.85
2023-02-06T09:16:43.389Z,101957.61
2023-02-06T09:20:53.075Z,101967.71
2023-02-06T09:24:56.655Z,101965.90
2023-02-06T09:28:42.941Z,101957.27
2023-02-06T09:32:06.731Z,101957.79
2023-02-06T09:35:30.274Z,101951.67
2023-02-06T09:38:44.836Z,101951.44
2023-02-06T09:42:48.443Z,101959.30
2023-02-06T09:46:52.225Z,101950.63
2023-02-06T09:50:30.842Z,101962.42
2023-02-06T09:54:27.607Z,101964.42
2023-02-06T09:58:24.822Z,101973.55
2023-02-06T10:02:32.327Z,101975.48
2023-02-06T10:06:21.775Z,101978.92
2023-02-06T10:14:22.376Z,101974.13
2023-02-06T10:18:11.803Z,101982.21
2023-02-06T10:21:51.704Z,101989.82
2023-02-06T10:25:51.809Z,101996.08
2023-02-06T10:29:46.402Z,102006.48
2023-02-06T10:38:32.140Z,101984.49
2023-02-06T10:42:54.331Z,101974.57
2023-02-06T10:47:24.359Z,101972.67
2023-02-06T10:51:36.725Z,101951.05
2023-02-06T11:00:32.571Z,101961.30
2023-02-06T11:04:24.925Z,101966.18
2023-02-06T11:13:29.472Z,101953.78
2023-02-06T11:22:57.388Z,101961.85
2023-02-06T11:27:13.146Z,101962.17
2023-02-06T11:31:35.080Z,101966.34
2023-02-06T11:35:42.968Z,101968.14
2023-02-06T11:39:36.336Z,101969.75
2023-02-06T11:48:28.459Z,101968.81
2023-02-06T11:52:46.977Z,101972.25
2023-02-06T11:57:03.324Z,101972.71
2023-02-06T12:01:08.848Z,101968.44
2023-02-06T12:05:12.625Z,101965.61
2023-02-06T12:09:24.911Z,101960.61
2023-02-06T12:13:19.628Z,101968.42
2023-02-06T12:17:23.316Z,101965.37
2023-02-06T12:21:31.996Z,101966.54
2023-02-06T12:25:14.142Z,101961.76
2023-02-06T12:29:23.816Z,101954.01
2023-02-06T12:33:21.302Z,101954.42
2023-02-06T12:37:24.991Z,101955.92
2023-02-06T12:41:46.992Z,101954.14
2023-02-06T12:46:05.380Z,101957.70
2023-02-06T12:50:12.626Z,101955.44
2023-02-06T12:54:02.366Z,101962.73
2023-02-06T12:57:52.502Z,101960.05
2023-02-06T13:01:49.711Z,101963.30
2023-02-06T13:05:23.040Z,101956.52
2023-02-06T13:09:16.451Z,101949.20
2023-02-06T13:13:13.923Z,101946.34
2023-02-06T13:17:13.080Z,101948.19
2023-02-06T13:21:09.815Z,101952.30
2023-02-06T13:25:06.544Z,101945.26
2023-02-06T13:28:42.220Z,101937.91
2023-02-06T13:32:29.346Z,101939.89
2023-02-06T13:36:30.841Z,101933.92
2023-02-06T13:40:32.831Z,101939.02
2023-02-06T13:44:05.237Z,101949.69
2023-02-06T13:48:05.680Z,101958.70
2023-02-06T13:51:50.998Z,101955.59
2023-02-06T13:55:56.875Z,101960.31
2023-02-06T14:00:00.484Z,101969.46
2023-02-06T14:04:10.332Z,101972.79
2023-02-06T14:08:18.188Z,101975.27
2023-02-06T14:12:52.436Z,101982.42
2023-02-06T14:17:06.939Z,101985.64
2023-02-06T14:21:01.783Z,101989.72
2023-02-06T14:25:04.247Z,101997.31
2023-02-06T14:29:25.349Z,101999.54
2023-02-06T14:33:59.696Z,101988.02
2023-02-06T14:42:56.233Z,102006.84
2023-02-06T14:46:41.649Z,102022.80
2023-02-06T14:50:45.534Z,102029.86
2023-02-06T14:54:41.772Z,102041.27
2023-02-06T14:58:36.805Z,102049.90
2023-02-06T15:02:48.303Z,102057.80
2023-02-06T15:07:10.594Z,102060.33
2023-02-06T15:11:14.753Z,102062.47
2023-02-06T15:15:22.369Z,102067.27
2023-02-06T15:19:26.406Z,102076.23
2023-02-06T15:23:56.312Z,102081.75
2023-02-06T15:28:09.244Z,102084.35
2023-02-06T15:32:18.922Z,102092.20
2023-02-06T15:36:21.173Z,102097.86
2023-02-06T15:40:04.656Z,102109.03
2023-02-06T15:44:10.203Z,102108.05
2023-02-06T15:48:03.663Z,102114.20
2023-02-06T15:52:19.264Z,102112.95
2023-02-06T15:56:21.802Z,102110.95
2023-02-06T16:00:25.440Z,102111.55
2023-02-06T16:04:31.083Z,102109.20
2023-02-06T16:08:28.159Z,102110.53
2023-02-06T16:12:27.851Z,102110.11
2023-02-06T16:16:49.532Z,102109.35
2023-02-06T16:21:12.007Z,102115.02
2023-02-06T16:29:49.602Z,102141.39
2023-02-06T16:33:51.747Z,102144.25
2023-02-06T16:37:45.459Z,102150.90
2023-02-06T16:41:17.867Z,102143.55
2023-02-06T16:45:13.220Z,102148.73
2023-02-06T16:49:17.965Z,102145.21
2023-02-06T16:53:26.619Z,102152.31
2023-02-06T16:57:30.216Z,102150.03
2023-02-06T17:01:23.804Z,102158.29
2023-02-06T17:05:10.191Z,102160.45
2023-02-06T17:09:14.013Z,102158.62
2023-02-06T17:13:18.182Z,102148.59
2023-02-06T17:17:30.543Z,102150.27
2023-02-06T17:21:28.450Z,102166.95
2023-02-06T17:25:20.932Z,102177.44
2023-02-06T17:29:24.584Z,102176.33
2023-02-06T17:33:28.443Z,102168.61
2023-02-06T17:37:33.280Z,102174.80
2023-02-06T17:41:30.571Z,102184.45
2023-02-06T17:45:34.727Z,102187.52
2023-02-06T17:49:19.018Z,102184.33
2023-02-06T17:53:21.461Z,102188.80
2023-02-06T17:57:15.011Z,102201.29
2023-02-06T18:01:24.660Z,102199.92
2023-02-06T18:04:38.897Z,102204.20
2023-02-06T18:08:42.681Z,102184.30
2023-02-06T18:12:36.069Z,102184.24
2023-02-06T18:16:27.549Z,102186.67
2023-02-06T18:20:21.061Z,102194.70
2023-02-06T18:23:52.338Z,102209.86
2023-02-06T18:27:55.915Z,102221.08
2023-02-06T18:31:57.212Z,102219.27
2023-02-06T18:35:50.713Z,102220.10
2023-02-06T18:39:44.711Z,102216.97
2023-02-06T18:43:28.275Z,102229.40
2023-02-06T18:47:22.922Z,102247.73
2023-02-06T18:51:08.591Z,102238.02
2023-02-06T18:54:55.601Z,102239.06
2023-02-06T18:58:59.532Z,102226.58
2023-02-06T19:02:53.311Z,102220.48
2023-02-06T19:06:59.661Z,102222.39
2023-02-06T19:10:48.257Z,102232.31
2023-02-06T19:14:22.611Z,102237.99
2023-02-06T19:18:06.217Z,102243.67
2023-02-06T19:22:09.842Z,102240.48
2023-02-06T19:26:04.110Z,102235.36
2023-02-06T19:30:07.737Z,102248.34
2023-02-06T19:34:10.299Z,102246.25
2023-02-06T19:38:03.936Z,102245.84
2023-02-06T19:42:13.901Z,102241.48
2023-02-06T19:46:18.816Z,102247.00
2023-02-06T19:50:00.845Z,102253.42
2023-02-06T19:53:55.680Z,102262.41
2023-02-06T19:57:39.538Z,102249.60
2023-02-06T20:01:43.427Z,102241.39
2023-02-06T20:05:29.797Z,102242.55
2023-02-06T20:09:33.427Z,102244.28
2023-02-06T20:13:22.155Z,102257.52
2023-02-06T20:17:21.788Z,102263.02
2023-02-06T20:20:53.209Z,102266.44
2023-02-06T20:24:20.834Z,102276.27
2023-02-06T20:28:24.800Z,102281.09
2023-02-06T20:32:19.490Z,102275.23
2023-02-06T20:35:32.726Z,102273.39
2023-02-06T20:39:32.105Z,102267.83
2023-02-06T20:43:37.789Z,102263.08
2023-02-06T20:47:31.553Z,102267.34
2023-02-06T20:51:41.299Z,102274.09
2023-02-06T20:55:25.945Z,102280.72
2023-02-06T20:59:12.186Z,102275.48
2023-02-06T21:03:15.893Z,102273.03
2023-02-06T21:07:19.458Z,102275.10
2023-02-06T21:11:24.830Z,102281.04
2023-02-06T21:15:28.435Z,102277.70
2023-02-06T21:19:16.962Z,102272.55
2023-02-06T21:23:00.392Z,102262.45
2023-02-06T21:27:03.967Z,102261.55
2023-02-06T21:30:57.479Z,102254.25
2023-02-06T21:35:01.121Z,102246.27
2023-02-06T21:38:50.015Z,102243.23
2023-02-06T21:42:46.616Z,102253.93
2023-02-06T21:46:29.131Z,102254.27
2023-02-06T21:50:05.698Z,102265.14
2023-02-06T21:53:11.777Z,102272.77
2023-02-06T21:56:42.620Z,102276.33
2023-02-06T22:00:17.154Z,102281.45
2023-02-06T22:03:26.070Z,102295.74
2023-02-06T22:07:09.407Z,102301.83
2023-02-06T22:10:18.620Z,102307.36
2023-02-06T22:13:56.590Z,102312.64
2023-02-06T22:17:33.146Z,102314.22
2023-02-06T22:20:49.102Z,102318.19
2023-02-06T22:24:32.681Z,102307.95
2023-02-06T22:28:09.708Z,102312.45
2023-02-06T22:31:38.972Z,102316.11
2023-02-06T22:35:06.021Z,102318.52
2023-02-06T22:39:09.624Z,102315.05
2023-02-06T22:42:57.104Z,102318.67
2023-02-06T22:46:30.607Z,102317.38
2023-02-06T22:50:05.675Z,102316.52
2023-02-06T22:53:50.310Z,102318.45
2023-02-06T22:57:13.825Z,102325.16
2023-02-06T23:01:18.535Z,102332.05
2023-02-06T23:04:44.793Z,102332.37
2023-02-06T23:08:48.332Z,102326.77
2023-02-06T23:12:16.395Z,102331.69
2023-02-06T23:15:59.748Z,102330.23
2023-02-06T23:19:53.179Z,102331.42
2023-02-06T23:23:38.242Z,102331.84
2023-02-06T23:27:11.987Z,102332.55
2023-02-06T23:31:06.519Z,102331.86
2023-02-06T23:34:35.560Z,102329.08
2023-02-06T23:38:38.275Z,102326.15
2023-02-06T23:42:40.334Z,102316.85
2023-02-06T23:46:23.832Z,102313.58
2023-02-06T23:50:18.341Z,102319.45
2023-02-06T23:53:51.588Z,102317.59
2023-02-06T23:57:47.805Z,102322.96
